createdAt,value
2023-05-12T00:01:13.636Z,99886.84
2023-05-12T00:03:58.696Z,99887.44
2023-05-12T00:06:43.458Z,99890.81
2023-05-12T00:09:28.424Z,99889.38
2023-05-12T00:12:13.204Z,99890.47
2023-05-12T00:14:57.950Z,99880.41
2023-05-12T00:17:42.836Z,99884.09
2023-05-12T00:20:27.828Z,99888.75
2023-05-12T00:23:12.721Z,99891.47
2023-05-12T00:25:57.510Z,99894.00
2023-05-12T00:28:42.502Z,99888.47
2023-05-12T00:31:29.501Z,99888.63
2023-05-12T00:34:14.419Z,99896.25
2023-05-12T00:36:59.133Z,99891.16
2023-05-12T00:39:43.530Z,99894.50
2023-05-12T00:42:28.096Z,99900.41
2023-05-12T00:45:12.794Z,99897.69
2023-05-12T00:47:58.064Z,99899.78
2023-05-12T00:50:42.796Z,99896.16
2023-05-12T00:53:35.114Z,99902.06
2023-05-12T00:56:34.604Z,99903.53
2023-05-12T00:59:21.038Z,99912.75
2023-05-12T01:02:06.587Z,99911.38
2023-05-12T01:04:52.579Z,99907.88
2023-05-12T01:07:38.556Z,99911.09
2023-05-12T01:10:24.318Z,99908.22
2023-05-12T01:13:08.854Z,99909.03
2023-05-12T01:15:58.263Z,99905.84
2023-05-12T01:18:49.230Z,99904.75
2023-05-12T01:21:33.900Z,99907.78
2023-05-12T01:24:21.346Z,99908.91
2023-05-12T01:27:07.467Z,99916.69
2023-05-12T01:29:53.976Z,99915.44
2023-05-12T01:32:39.779Z,99920.84
2023-05-12T01:35:24.867Z,99919.72
2023-05-12T01:38:15.802Z,99919.91
2023-05-12T01:41:00.330Z,99921.16
2023-05-12T01:43:45.442Z,99929.91
2023-05-12T01:46:30.957Z,99921.94
2023-05-12T01:49:17.967Z,99920.53
2023-05-12T01:52:04.331Z,99923.06
2023-05-12T01:54:50.708Z,99928.34
2023-05-12T01:57:35.942Z,99928.00
2023-05-12T02:00:46.863Z,99927.22
2023-05-12T02:03:37.333Z,99929.13
2023-05-12T02:06:27.878Z,99931.81
2023-05-12T02:09:13.448Z,99932.00
2023-05-12T02:11:58.883Z,99937.22
2023-05-12T02:14:43.589Z,99938.66
2023-05-12T02:17:28.727Z,99941.38
2023-05-12T02:20:16.687Z,99936.09
2023-05-12T02:23:02.499Z,99936.41
2023-05-12T02:25:48.890Z,99930.84
2023-05-12T02:28:33.604Z,99929.41
2023-05-12T02:31:18.690Z,99933.38
2023-05-12T02:34:05.843Z,99932.13
2023-05-12T02:36:51.728Z,99935.91
2023-05-12T02:39:37.070Z,99919.66
2023-05-12T02:42:21.951Z,99927.72
2023-05-12T02:45:07.416Z,99935.59
2023-05-12T02:47:52.488Z,99930.09
2023-05-12T02:50:37.304Z,99930.47
2023-05-12T02:53:21.866Z,99926.03
2023-05-12T02:56:07.406Z,99920.09
2023-05-12T02:58:52.861Z,99932.88
2023-05-12T03:01:37.836Z,99930.03
2023-05-12T03:04:22.721Z,99923.53
2023-05-12T03:07:09.737Z,99920.13
2023-05-12T03:09:54.754Z,99925.22
2023-05-12T03:12:40.124Z,99923.69
2023-05-12T03:15:24.744Z,99919.84
2023-05-12T03:18:09.791Z,99927.59
2023-05-12T03:20:54.834Z,99931.19
2023-05-12T03:23:41.426Z,99933.56
2023-05-12T03:26:26.593Z,99932.28
2023-05-12T03:29:11.337Z,99925.47
2023-05-12T03:31:56.322Z,99925.63
2023-05-12T03:34:41.165Z,99927.38
2023-05-12T03:37:26.803Z,99927.94
2023-05-12T03:40:17.834Z,99931.25
2023-05-12T03:43:02.503Z,99933.28
2023-05-12T03:45:47.541Z,99936.72
2023-05-12T03:48:33.582Z,99941.47
2023-05-12T03:51:18.465Z,99939.69
2023-05-12T03:54:03.670Z,99945.50
2023-05-12T03:56:48.553Z,99938.94
2023-05-12T03:59:33.810Z,99944.75
2023-05-12T04:02:18.661Z,99947.38
2023-05-12T04:05:07.539Z,99944.03
2023-05-12T04:07:52.156Z,99947.84
2023-05-12T04:10:41.330Z,99943.66
2023-05-12T04:13:26.913Z,99942.09
2023-05-12T04:16:11.625Z,99941.34
2023-05-12T04:18:56.810Z,99943.00
2023-05-12T04:21:41.664Z,99941.75
2023-05-12T04:24:27.224Z,99952.00
2023-05-12T04:27:11.902Z,99954.50
2023-05-12T04:29:57.497Z,99951.16
2023-05-12T04:32:43.171Z,99945.69
2023-05-12T04:35:28.342Z,99946.28
2023-05-12T04:38:13.348Z,99947.41
2023-05-12T04:40:59.409Z,99954.72
2023-05-12T04:46:31.594Z,99958.81
2023-05-12T04:49:18.000Z,99959.66
2023-05-12T04:52:04.709Z,99961.03
2023-05-12T04:54:49.502Z,99958.38
2023-05-12T04:57:34.356Z,99958.38
2023-05-12T05:00:19.580Z,99961.13
2023-05-12T05:03:05.334Z,99958.94
2023-05-12T05:05:50.361Z,99957.34
2023-05-12T05:08:35.391Z,99959.28
2023-05-12T05:11:21.952Z,99960.97
2023-05-12T05:14:06.679Z,99953.94
2023-05-12T05:16:53.472Z,99953.69
2023-05-12T05:19:52.790Z,99952.56
2023-05-12T05:22:41.025Z,99951.66
2023-05-12T05:25:27.309Z,99960.19
2023-05-12T05:28:13.470Z,99950.34
2023-05-12T05:30:58.854Z,99961.75
2023-05-12T05:33:44.085Z,99946.69
2023-05-12T05:36:31.431Z,99958.56
2023-05-12T05:39:16.626Z,99959.75
2023-05-12T05:42:01.556Z,99959.75
2023-05-12T05:44:47.677Z,99956.16
2023-05-12T05:47:33.769Z,99961.56
2023-05-12T05:50:18.430Z,99959.22
2023-05-12T05:53:03.799Z,99959.72
2023-05-12T05:55:48.691Z,99966.53
2023-05-12T05:58:33.759Z,99963.50
2023-05-12T06:01:20.639Z,99958.97
2023-05-12T06:04:05.793Z,99959.34
2023-05-12T06:06:50.906Z,99958.25
2023-05-12T06:09:35.722Z,99951.03
2023-05-12T06:12:20.861Z,99959.66
2023-05-12T06:15:06.704Z,99956.28
2023-05-12T06:17:51.504Z,99953.34
2023-05-12T06:20:36.232Z,99953.34
2023-05-12T06:23:21.317Z,99954.13
2023-05-12T06:26:07.268Z,99957.53
2023-05-12T06:28:51.882Z,99957.25
2023-05-12T06:31:36.952Z,99953.31
2023-05-12T06:34:21.853Z,99954.91
2023-05-12T06:37:06.934Z,99961.13
2023-05-12T06:39:52.322Z,99953.03
2023-05-12T06:42:37.326Z,99955.13
2023-05-12T06:45:27.433Z,99957.25
2023-05-12T06:48:12.387Z,99949.97
2023-05-12T06:50:57.098Z,99949.50
2023-05-12T06:53:46.175Z,99944.00
2023-05-12T06:56:31.560Z,99945.81
2023-05-12T06:59:16.996Z,99934.59
2023-05-12T07:02:01.791Z,99942.13
2023-05-12T07:04:46.597Z,99940.25
2023-05-12T07:07:31.669Z,99944.94
2023-05-12T07:10:16.689Z,99946.00
2023-05-12T07:13:01.630Z,99944.94
2023-05-12T07:15:46.598Z,99945.13
2023-05-12T07:18:32.096Z,99946.72
2023-05-12T07:21:17.003Z,99951.59
2023-05-12T07:24:02.060Z,99943.38
2023-05-12T07:26:47.030Z,99941.06
2023-05-12T07:29:32.229Z,99938.25
2023-05-12T07:32:17.127Z,99942.06
2023-05-12T07:35:03.096Z,99946.09
2023-05-12T07:37:48.280Z,99945.69
2023-05-12T07:40:32.931Z,99934.22
2023-05-12T07:43:18.592Z,99936.50
2023-05-12T07:46:03.747Z,99941.72
2023-05-12T07:48:48.565Z,99934.97
2023-05-12T07:51:33.573Z,99941.00
2023-05-12T07:54:18.520Z,99930.34
2023-05-12T07:57:03.793Z,99926.97
2023-05-12T07:59:49.621Z,99927.63
2023-05-12T08:02:37.099Z,99928.75
2023-05-12T08:05:22.316Z,99928.09
2023-05-12T08:08:09.432Z,99921.25
2023-05-12T08:10:54.325Z,99922.09
2023-05-12T08:13:39.495Z,99915.69
2023-05-12T08:16:24.448Z,99922.31
2023-05-12T08:19:09.634Z,99918.34
2023-05-12T08:21:54.451Z,99912.56
2023-05-12T08:24:39.822Z,99919.97
2023-05-12T08:27:24.754Z,99913.50
2023-05-12T08:30:10.211Z,99914.13
2023-05-12T08:32:56.149Z,99918.69
2023-05-12T08:35:40.899Z,99910.34
2023-05-12T08:38:25.934Z,99908.59
2023-05-12T08:41:36.358Z,99910.22
2023-05-12T08:44:22.255Z,99918.56
2023-05-12T08:47:08.806Z,99902.00
2023-05-12T08:50:02.925Z,99907.38
2023-05-12T08:52:48.948Z,99894.78
2023-05-12T08:55:34.732Z,99896.50
2023-05-12T08:58:30.498Z,99897.63
2023-05-12T09:01:22.744Z,99877.13
2023-05-12T09:04:07.958Z,99900.50
2023-05-12T09:06:55.528Z,99896.03
2023-05-12T09:09:45.109Z,99899.84
2023-05-12T09:12:33.983Z,99888.50
2023-05-12T09:15:25.623Z,99892.38
2023-05-12T09:18:10.426Z,99895.09
2023-05-12T09:20:55.697Z,99891.06
2023-05-12T09:23:51.007Z,99878.91
2023-05-12T09:26:45.720Z,99897.34
2023-05-12T09:29:35.692Z,99889.50
2023-05-12T09:32:35.029Z,99885.91
2023-05-12T09:35:20.307Z,99878.75
2023-05-12T09:38:13.691Z,99883.72
2023-05-12T09:40:58.343Z,99885.47
2023-05-12T09:43:46.475Z,99874.19
2023-05-12T09:46:31.683Z,99880.53
2023-05-12T09:49:21.748Z,99875.25
2023-05-12T09:52:06.494Z,99865.25
2023-05-12T09:54:52.121Z,99860.41
2023-05-12T09:57:41.984Z,99861.56
2023-05-12T10:00:36.966Z,99867.78
2023-05-12T10:03:29.574Z,99863.34
2023-05-12T10:06:15.596Z,99867.44
2023-05-12T10:09:28.104Z,99853.09
2023-05-12T10:12:13.434Z,99866.50
2023-05-12T10:14:59.630Z,99854.34
2023-05-12T10:17:45.321Z,99853.06
2023-05-12T10:20:30.534Z,99852.34
2023-05-12T10:23:18.157Z,99851.81
2023-05-12T10:26:04.597Z,99839.34
2023-05-12T10:28:50.902Z,99839.66
2023-05-12T10:31:36.781Z,99844.69
2023-05-12T10:34:21.493Z,99845.28
2023-05-12T10:37:10.302Z,99842.69
2023-05-12T10:39:55.307Z,99841.44
2023-05-12T10:42:43.157Z,99842.19
2023-05-12T10:45:28.032Z,99834.44
2023-05-12T10:48:18.258Z,99833.81
2023-05-12T10:51:08.081Z,99834.84
2023-05-12T10:53:58.729Z,99830.25
2023-05-12T10:56:44.774Z,99826.63
2023-05-12T10:59:30.712Z,99817.25
2023-05-12T11:02:18.483Z,99819.97
2023-05-12T11:05:11.547Z,99820.75
2023-05-12T11:07:59.010Z,99808.25
2023-05-12T11:10:44.189Z,99808.47
2023-05-12T11:13:29.177Z,99806.50
2023-05-12T11:16:14.036Z,99810.44
2023-05-12T11:19:05.664Z,99809.53
2023-05-12T11:21:50.681Z,99816.31
2023-05-12T11:24:37.252Z,99811.66
2023-05-12T11:27:23.169Z,99818.47
2023-05-12T11:30:08.578Z,99804.59
2023-05-12T11:33:03.304Z,99806.81
2023-05-12T11:35:49.209Z,99795.06
2023-05-12T11:38:33.801Z,99797.63
2023-05-12T11:41:25.776Z,99797.81
2023-05-12T11:44:18.957Z,99798.16
2023-05-12T11:47:12.832Z,99807.34
2023-05-12T11:49:57.505Z,99805.22
2023-05-12T11:52:42.683Z,99803.34
2023-05-12T11:55:27.710Z,99805.38
2023-05-12T11:58:29.965Z,99803.41
2023-05-12T12:01:15.033Z,99801.28
2023-05-12T12:03:59.996Z,99813.34
2023-05-12T12:06:45.452Z,99811.03
2023-05-12T12:09:35.762Z,99805.84
2023-05-12T12:12:20.672Z,99802.47
2023-05-12T12:15:06.797Z,99789.47
2023-05-12T12:17:51.664Z,99783.63
2023-05-12T12:20:36.732Z,99787.81
2023-05-12T12:23:21.563Z,99777.13
2023-05-12T12:26:07.314Z,99775.59
2023-05-12T12:28:52.171Z,99777.84
2023-05-12T12:31:37.304Z,99771.94
2023-05-12T12:34:22.188Z,99769.72
2023-05-12T12:37:07.301Z,99770.31
2023-05-12T12:39:52.346Z,99765.38
2023-05-12T12:42:39.890Z,99771.91
2023-05-12T12:45:24.972Z,99762.75
2023-05-12T12:48:10.380Z,99762.16
2023-05-12T12:50:55.488Z,99752.63
2023-05-12T12:53:42.745Z,99745.34
2023-05-12T12:56:27.474Z,99750.31
2023-05-12T12:59:12.560Z,99753.66
2023-05-12T13:01:59.351Z,99744.41
2023-05-12T13:04:43.976Z,99743.03
2023-05-12T13:07:30.057Z,99732.81
2023-05-12T13:10:15.948Z,99739.13
2023-05-12T13:13:00.657Z,99736.06
2023-05-12T13:15:45.470Z,99733.38
2023-05-12T13:18:30.496Z,99736.53
2023-05-12T13:21:15.423Z,99747.84
2023-05-12T13:24:00.541Z,99747.75
2023-05-12T13:26:45.701Z,99744.66
2023-05-12T13:29:30.645Z,99751.38
2023-05-12T13:32:15.760Z,99752.41
2023-05-12T13:35:00.978Z,99747.41
2023-05-12T13:37:45.497Z,99738.78
2023-05-12T13:40:30.749Z,99738.16
2023-05-12T13:43:15.579Z,99735.59
2023-05-12T13:46:00.570Z,99735.56
2023-05-12T13:48:46.193Z,99725.03
2023-05-12T13:51:31.863Z,99729.34
2023-05-12T13:54:16.835Z,99727.16
2023-05-12T13:57:03.432Z,99728.66
2023-05-12T13:59:49.808Z,99724.41
2023-05-12T14:02:34.620Z,99723.06
2023-05-12T14:05:19.827Z,99721.34
2023-05-12T14:08:04.940Z,99717.44
2023-05-12T14:10:50.036Z,99716.06
2023-05-12T14:13:35.154Z,99714.31
2023-05-12T14:16:19.974Z,99715.38
2023-05-12T14:19:05.090Z,99712.97
2023-05-12T14:21:49.830Z,99713.25
2023-05-12T14:24:34.933Z,99723.94
2023-05-12T14:27:19.977Z,99715.50
2023-05-12T14:30:07.112Z,99723.22
2023-05-12T14:32:52.962Z,99717.16
2023-05-12T14:35:37.958Z,99713.25
2023-05-12T14:38:23.620Z,99716.72
2023-05-12T14:41:09.040Z,99717.59
2023-05-12T14:43:54.016Z,99723.47
2023-05-12T14:46:39.078Z,99719.31
2023-05-12T14:49:24.032Z,99713.28
2023-05-12T14:52:08.950Z,99721.97
2023-05-12T14:54:53.960Z,99723.56
2023-05-12T14:57:43.336Z,99725.97
2023-05-12T15:00:28.218Z,99717.53
2023-05-12T15:03:13.057Z,99711.72
2023-05-12T15:06:06.384Z,99705.41
2023-05-12T15:08:51.805Z,99708.03
2023-05-12T15:11:37.152Z,99703.78
2023-05-12T15:14:21.727Z,99703.00
2023-05-12T15:17:07.034Z,99700.53
2023-05-12T15:19:51.881Z,99706.88
2023-05-12T15:22:37.046Z,99695.06
2023-05-12T15:25:22.196Z,99697.13
2023-05-12T15:28:07.103Z,99697.50
2023-05-12T15:30:56.289Z,99700.16
2023-05-12T15:33:41.385Z,99697.22
2023-05-12T15:36:26.054Z,99701.78
2023-05-12T15:39:11.346Z,99692.13
2023-05-12T15:41:56.270Z,99689.09
2023-05-12T15:44:41.390Z,99684.00
2023-05-12T15:47:26.869Z,99687.53
2023-05-12T15:50:11.993Z,99686.44
2023-05-12T15:52:56.856Z,99682.06
2023-05-12T15:55:42.771Z,99689.81
2023-05-12T15:58:27.950Z,99692.44
2023-05-12T16:01:12.982Z,99689.13
2023-05-12T16:03:57.919Z,99688.06
2023-05-12T16:06:42.944Z,99685.16
2023-05-12T16:09:27.956Z,99690.09
2023-05-12T16:12:12.721Z,99691.53
2023-05-12T16:14:57.727Z,99684.91
2023-05-12T16:17:42.603Z,99683.81
2023-05-12T16:20:28.436Z,99681.34
2023-05-12T16:23:14.009Z,99672.88
2023-05-12T16:25:58.759Z,99680.28
2023-05-12T16:28:43.897Z,99685.28
2023-05-12T16:31:30.274Z,99680.31
2023-05-12T16:34:15.351Z,99682.09
2023-05-12T16:37:00.215Z,99695.63
2023-05-12T16:39:45.237Z,99699.41
2023-05-12T16:42:30.667Z,99699.22
2023-05-12T16:45:16.016Z,99696.81
2023-05-12T16:48:00.815Z,99695.72
2023-05-12T16:50:45.644Z,99700.03
2023-05-12T16:53:30.900Z,99702.94
2023-05-12T16:56:15.376Z,99706.59
2023-05-12T16:59:00.631Z,99707.78
2023-05-12T17:01:45.686Z,99710.72
2023-05-12T17:04:30.167Z,99714.97
2023-05-12T17:07:15.022Z,99711.88
2023-05-12T17:10:00.186Z,99718.81
2023-05-12T17:12:44.854Z,99720.25
2023-05-12T17:15:29.812Z,99720.41
2023-05-12T17:18:14.939Z,99726.16
2023-05-12T17:20:59.838Z,99735.16
2023-05-12T17:23:45.178Z,99734.38
2023-05-12T17:26:29.982Z,99724.94
2023-05-12T17:29:14.979Z,99729.75
2023-05-12T17:32:01.546Z,99732.28
2023-05-12T17:34:51.967Z,99725.91
2023-05-12T17:37:37.686Z,99736.34
2023-05-12T17:40:22.988Z,99734.53
2023-05-12T17:43:07.820Z,99738.31
2023-05-12T17:45:52.791Z,99737.47
2023-05-12T17:48:38.119Z,99739.47
2023-05-12T17:51:22.767Z,99744.09
2023-05-12T17:54:08.024Z,99743.19
2023-05-12T17:56:52.682Z,99754.22
2023-05-12T17:59:37.516Z,99751.00
2023-05-12T18:02:22.890Z,99753.16
2023-05-12T18:05:08.525Z,99753.38
2023-05-12T18:07:53.321Z,99755.25
2023-05-12T18:10:40.703Z,99759.34
2023-05-12T18:13:25.645Z,99759.03
2023-05-12T18:16:21.332Z,99758.06
2023-05-12T18:19:10.195Z,99763.13
2023-05-12T18:21:55.576Z,99770.19
2023-05-12T18:24:40.491Z,99767.97
2023-05-12T18:27:25.357Z,99774.06
2023-05-12T18:30:10.822Z,99772.38
2023-05-12T18:32:56.468Z,99774.06
2023-05-12T18:35:41.243Z,99779.03
2023-05-12T18:38:26.488Z,99772.94
2023-05-12T18:41:11.784Z,99774.63
2023-05-12T18:43:56.424Z,99773.38
2023-05-12T18:46:41.285Z,99781.81
2023-05-12T18:49:26.458Z,99775.75
2023-05-12T18:52:11.210Z,99782.03
2023-05-12T18:54:56.092Z,99780.00
2023-05-12T18:57:41.171Z,99775.81
2023-05-12T19:00:31.180Z,99780.09
2023-05-12T19:03:16.105Z,99777.16
2023-05-12T19:06:00.981Z,99777.25
2023-05-12T19:08:45.845Z,99785.41
2023-05-12T19:11:30.886Z,99781.69
2023-05-12T19:14:16.706Z,99783.03
2023-05-12T19:17:01.570Z,99786.59
2023-05-12T19:19:46.507Z,99783.66
2023-05-12T19:22:31.601Z,99782.88
2023-05-12T19:25:19.793Z,99783.88
2023-05-12T19:28:05.381Z,99782.97
2023-05-12T19:30:50.207Z,99775.53
2023-05-12T19:33:35.384Z,99783.28
2023-05-12T19:36:20.204Z,99781.34
2023-05-12T19:39:05.188Z,99773.06
2023-05-12T19:41:51.017Z,99788.38
2023-05-12T19:44:35.771Z,99784.31
2023-05-12T19:47:24.473Z,99787.78
2023-05-12T19:50:09.717Z,99784.59
2023-05-12T19:52:54.544Z,99783.25
2023-05-12T19:55:39.517Z,99782.31
2023-05-12T19:58:25.779Z,99789.72
2023-05-12T20:01:11.673Z,99786.84
2023-05-12T20:03:56.627Z,99791.78
2023-05-12T20:06:41.961Z,99793.69
2023-05-12T20:09:26.501Z,99792.03
2023-05-12T20:12:11.529Z,99792.09
2023-05-12T20:14:56.366Z,99784.19
2023-05-12T20:17:41.090Z,99784.84
2023-05-12T20:20:25.936Z,99789.19
2023-05-12T20:23:10.883Z,99786.63
2023-05-12T20:25:55.881Z,99792.00
2023-05-12T20:28:40.780Z,99792.63
2023-05-12T20:31:26.632Z,99790.34
2023-05-12T20:34:11.377Z,99793.75
2023-05-12T20:36:56.935Z,99790.06
2023-05-12T20:39:41.939Z,99790.53
2023-05-12T20:42:27.423Z,99793.34
2023-05-12T20:45:13.321Z,99785.47
2023-05-12T20:47:57.842Z,99793.00
2023-05-12T20:50:43.147Z,99795.63
2023-05-12T20:53:28.422Z,99787.16
2023-05-12T20:56:13.299Z,99799.84
2023-05-12T20:58:58.270Z,99795.53
2023-05-12T21:01:43.195Z,99791.19
2023-05-12T21:04:28.113Z,99791.81
2023-05-12T21:07:13.189Z,99798.00
2023-05-12T21:09:59.554Z,99795.44
2023-05-12T21:12:44.043Z,99796.63
2023-05-12T21:15:28.961Z,99805.13
2023-05-12T21:18:13.928Z,99804.53
2023-05-12T21:20:58.867Z,99803.72
2023-05-12T21:23:43.938Z,99802.28
2023-05-12T21:26:28.776Z,99808.97
2023-05-12T21:29:13.913Z,99800.69
2023-05-12T21:31:59.653Z,99800.88
2023-05-12T21:34:45.016Z,99803.50
2023-05-12T21:37:29.759Z,99810.25
2023-05-12T21:40:14.982Z,99810.28
2023-05-12T21:42:59.778Z,99804.59
2023-05-12T21:45:44.824Z,99805.41
2023-05-12T21:48:29.927Z,99812.94
2023-05-12T21:51:15.038Z,99809.00
2023-05-12T21:54:00.213Z,99810.59
2023-05-12T21:56:44.749Z,99818.13
2023-05-12T21:59:30.186Z,99812.00
2023-05-12T22:02:14.789Z,99816.16
2023-05-12T22:04:59.838Z,99816.16
2023-05-12T22:07:44.687Z,99818.53
2023-05-12T22:10:31.368Z,99825.84
2023-05-12T22:13:16.357Z,99825.03
2023-05-12T22:16:02.085Z,99827.00
2023-05-12T22:18:47.509Z,99826.00
2023-05-12T22:21:33.125Z,99827.59
2023-05-12T22:24:21.582Z,99826.22
2023-05-12T22:27:06.664Z,99823.06
2023-05-12T22:29:51.857Z,99824.81
2023-05-12T22:32:36.973Z,99821.06
2023-05-12T22:35:21.976Z,99821.84
2023-05-12T22:38:06.941Z,99824.78
2023-05-12T22:40:52.013Z,99828.72
2023-05-12T22:43:36.872Z,99831.09
2023-05-12T22:46:21.542Z,99822.59
2023-05-12T22:49:06.347Z,99822.97
2023-05-12T22:51:51.425Z,99820.22
2023-05-12T22:54:36.332Z,99802.84
2023-05-12T22:57:22.271Z,99806.22
2023-05-12T23:00:07.506Z,99806.41
2023-05-12T23:02:53.059Z,99802.25
2023-05-12T23:05:37.871Z,99800.88
2023-05-12T23:08:22.604Z,99801.88
2023-05-12T23:11:09.016Z,99796.34
2023-05-12T23:13:53.830Z,99801.09
2023-05-12T23:16:38.599Z,99796.16
2023-05-12T23:19:23.232Z,99800.28
2023-05-12T23:22:08.140Z,99798.13
2023-05-12T23:24:54.350Z,99802.84
2023-05-12T23:27:39.359Z,99800.25
2023-05-12T23:30:24.653Z,99801.66
2023-05-12T23:33:09.466Z,99800.25
2023-05-12T23:35:54.271Z,99794.91
2023-05-12T23:38:39.443Z,99800.63
2023-05-12T23:41:25.014Z,99806.53
2023-05-12T23:44:09.818Z,99811.44
2023-05-12T23:46:54.473Z,99803.72
2023-05-12T23:49:39.452Z,99805.84
2023-05-12T23:52:24.229Z,99807.19
2023-05-12T23:55:09.483Z,99812.84
2023-05-12T23:57:54.250Z,99800.59
